sensor_id;sensor_type;location;lat;lon;timestamp;P1;durP1;ratioP1;P2;durP2;ratioP2
64684;SDS011;51109;47.414;18.954;2023-03-17T00:00:14;1.20;;;1.10;;
64684;SDS011;51109;47.414;18.954;2023-03-17T00:02:42;1.35;;;1.20;;
64684;SDS011;51109;47.414;18.954;2023-03-17T00:05:43;2.38;;;1.45;;
64684;SDS011;51109;47.414;18.954;2023-03-17T00:10:48;3.63;;;1.52;;
64684;SDS011;51109;47.414;18.954;2023-03-17T00:13:15;7.22;;;1.98;;
64684;SDS011;51109;47.414;18.954;2023-03-17T00:15:42;5.07;;;2.00;;
64684;SDS011;51109;47.414;18.954;2023-03-17T00:18:15;2.55;;;2.15;;
64684;SDS011;51109;47.414;18.954;2023-03-17T00:20:44;1.55;;;1.38;;
64684;SDS011;51109;47.414;18.954;2023-03-17T00:23:21;1.85;;;1.70;;
64684;SDS011;51109;47.414;18.954;2023-03-17T00:25:48;1.63;;;1.52;;
64684;SDS011;51109;47.414;18.954;2023-03-17T00:28:21;5.25;;;1.85;;
64684;SDS011;51109;47.414;18.954;2023-03-17T00:30:52;2.08;;;1.77;;
64684;SDS011;51109;47.414;18.954;2023-03-17T00:33:24;7.20;;;1.60;;
64684;SDS011;51109;47.414;18.954;2023-03-17T00:35:52;2.33;;;1.67;;
64684;SDS011;51109;47.414;18.954;2023-03-17T00:38:20;3.38;;;1.50;;
64684;SDS011;51109;47.414;18.954;2023-03-17T00:40:48;6.25;;;1.90;;
64684;SDS011;51109;47.414;18.954;2023-03-17T00:43:15;3.33;;;2.28;;
64684;SDS011;51109;47.414;18.954;2023-03-17T00:45:42;2.03;;;1.20;;
64684;SDS011;51109;47.414;18.954;2023-03-17T00:48:12;3.90;;;1.73;;
64684;SDS011;51109;47.414;18.954;2023-03-17T00:50:40;1.75;;;1.42;;
64684;SDS011;51109;47.414;18.954;2023-03-17T00:53:11;4.65;;;1.70;;
64684;SDS011;51109;47.414;18.954;2023-03-17T00:55:39;1.73;;;1.35;;
64684;SDS011;51109;47.414;18.954;2023-03-17T00:58:11;1.70;;;1.10;;
64684;SDS011;51109;47.414;18.954;2023-03-17T01:00:51;1.90;;;1.80;;
64684;SDS011;51109;47.414;18.954;2023-03-17T01:03:18;1.70;;;1.27;;
64684;SDS011;51109;47.414;18.954;2023-03-17T01:05:44;3.22;;;1.17;;
64684;SDS011;51109;47.414;18.954;2023-03-17T01:08:11;2.03;;;1.33;;
64684;SDS011;51109;47.414;18.954;2023-03-17T01:10:37;1.35;;;1.17;;
64684;SDS011;51109;47.414;18.954;2023-03-17T01:13:04;7.07;;;1.48;;
64684;SDS011;51109;47.414;18.954;2023-03-17T01:15:30;2.80;;;1.40;;
64684;SDS011;51109;47.414;18.954;2023-03-17T01:17:58;2.38;;;1.67;;
64684;SDS011;51109;47.414;18.954;2023-03-17T01:20:30;3.67;;;2.05;;
64684;SDS011;51109;47.414;18.954;2023-03-17T01:22:57;4.03;;;2.10;;
64684;SDS011;51109;47.414;18.954;2023-03-17T01:25:24;2.55;;;1.70;;
64684;SDS011;51109;47.414;18.954;2023-03-17T01:27:53;2.83;;;1.98;;
64684;SDS011;51109;47.414;18.954;2023-03-17T01:30:23;3.22;;;2.28;;
64684;SDS011;51109;47.414;18.954;2023-03-17T01:32:55;5.03;;;1.02;;
64684;SDS011;51109;47.414;18.954;2023-03-17T01:35:22;12.23;;;2.45;;
64684;SDS011;51109;47.414;18.954;2023-03-17T01:37:49;4.68;;;2.25;;
64684;SDS011;51109;47.414;18.954;2023-03-17T01:40:17;2.80;;;1.55;;
64684;SDS011;51109;47.414;18.954;2023-03-17T01:42:51;2.78;;;1.80;;
64684;SDS011;51109;47.414;18.954;2023-03-17T01:48:27;3.78;;;2.95;;
64684;SDS011;51109;47.414;18.954;2023-03-17T01:50:55;6.30;;;1.63;;
64684;SDS011;51109;47.414;18.954;2023-03-17T01:53:23;3.75;;;1.83;;
64684;SDS011;51109;47.414;18.954;2023-03-17T01:55:49;4.65;;;1.90;;
64684;SDS011;51109;47.414;18.954;2023-03-17T01:58:17;1.98;;;1.77;;
64684;SDS011;51109;47.414;18.954;2023-03-17T02:00:47;1.88;;;1.67;;
64684;SDS011;51109;47.414;18.954;2023-03-17T02:03:13;2.15;;;1.75;;
64684;SDS011;51109;47.414;18.954;2023-03-17T02:05:39;5.85;;;2.00;;
64684;SDS011;51109;47.414;18.954;2023-03-17T02:08:08;2.85;;;2.10;;
64684;SDS011;51109;47.414;18.954;2023-03-17T02:10:36;3.75;;;2.05;;
64684;SDS011;51109;47.414;18.954;2023-03-17T02:13:01;3.08;;;1.95;;
64684;SDS011;51109;47.414;18.954;2023-03-17T02:15:43;5.95;;;1.33;;
64684;SDS011;51109;47.414;18.954;2023-03-17T02:18:14;4.93;;;1.90;;
64684;SDS011;51109;47.414;18.954;2023-03-17T02:23:16;4.45;;;1.77;;
64684;SDS011;51109;47.414;18.954;2023-03-17T02:25:48;2.05;;;1.95;;
64684;SDS011;51109;47.414;18.954;2023-03-17T02:28:18;2.03;;;1.88;;
64684;SDS011;51109;47.414;18.954;2023-03-17T02:30:50;2.03;;;1.80;;
64684;SDS011;51109;47.414;18.954;2023-03-17T02:33:17;2.25;;;2.05;;
64684;SDS011;51109;47.414;18.954;2023-03-17T02:35:43;4.07;;;2.53;;
64684;SDS011;51109;47.414;18.954;2023-03-17T02:38:09;4.93;;;2.92;;
64684;SDS011;51109;47.414;18.954;2023-03-17T02:40:35;4.30;;;2.35;;
64684;SDS011;51109;47.414;18.954;2023-03-17T02:43:01;2.38;;;2.17;;
64684;SDS011;51109;47.414;18.954;2023-03-17T02:45:29;2.10;;;1.90;;
64684;SDS011;51109;47.414;18.954;2023-03-17T02:47:56;1.83;;;1.45;;
64684;SDS011;51109;47.414;18.954;2023-03-17T02:50:24;7.25;;;3.40;;
64684;SDS011;51109;47.414;18.954;2023-03-17T02:52:51;6.47;;;2.58;;
64684;SDS011;51109;47.414;18.954;2023-03-17T02:55:18;7.95;;;1.17;;
64684;SDS011;51109;47.414;18.954;2023-03-17T02:57:44;3.38;;;1.75;;
64684;SDS011;51109;47.414;18.954;2023-03-17T03:00:10;10.13;;;2.05;;
64684;SDS011;51109;47.414;18.954;2023-03-17T03:02:38;8.30;;;2.67;;
64684;SDS011;51109;47.414;18.954;2023-03-17T03:05:05;2.95;;;1.70;;
64684;SDS011;51109;47.414;18.954;2023-03-17T03:07:33;3.60;;;1.40;;
64684;SDS011;51109;47.414;18.954;2023-03-17T03:09:59;4.63;;;2.15;;
64684;SDS011;51109;47.414;18.954;2023-03-17T03:12:26;6.60;;;2.30;;
64684;SDS011;51109;47.414;18.954;2023-03-17T03:14:52;1.90;;;1.50;;
64684;SDS011;51109;47.414;18.954;2023-03-17T03:17:19;5.75;;;1.27;;
64684;SDS011;51109;47.414;18.954;2023-03-17T03:19:45;3.25;;;1.70;;
64684;SDS011;51109;47.414;18.954;2023-03-17T03:22:13;2.80;;;1.75;;
64684;SDS011;51109;47.414;18.954;2023-03-17T03:24:39;3.45;;;1.50;;
64684;SDS011;51109;47.414;18.954;2023-03-17T03:27:05;7.07;;;2.13;;
64684;SDS011;51109;47.414;18.954;2023-03-17T03:29:31;2.47;;;1.63;;
64684;SDS011;51109;47.414;18.954;2023-03-17T03:31:58;3.65;;;1.80;;
64684;SDS011;51109;47.414;18.954;2023-03-17T03:34:24;5.45;;;1.60;;
64684;SDS011;51109;47.414;18.954;2023-03-17T03:36:50;1.08;;;1.02;;
64684;SDS011;51109;47.414;18.954;2023-03-17T03:39:16;2.97;;;1.65;;
64684;SDS011;51109;47.414;18.954;2023-03-17T03:41:42;8.57;;;2.00;;
64684;SDS011;51109;47.414;18.954;2023-03-17T03:44:08;7.38;;;2.42;;
64684;SDS011;51109;47.414;18.954;2023-03-17T03:46:34;1.38;;;1.33;;
64684;SDS011;51109;47.414;18.954;2023-03-17T03:48:59;2.15;;;1.35;;
64684;SDS011;51109;47.414;18.954;2023-03-17T03:51:25;9.27;;;1.80;;
64684;SDS011;51109;47.414;18.954;2023-03-17T03:53:51;3.25;;;2.60;;
64684;SDS011;51109;47.414;18.954;2023-03-17T03:56:17;5.88;;;1.67;;
64684;SDS011;51109;47.414;18.954;2023-03-17T03:58:44;8.32;;;1.88;;
64684;SDS011;51109;47.414;18.954;2023-03-17T04:01:09;3.55;;;2.47;;
64684;SDS011;51109;47.414;18.954;2023-03-17T04:03:36;3.50;;;2.38;;
64684;SDS011;51109;47.414;18.954;2023-03-17T04:06:02;3.05;;;1.85;;
64684;SDS011;51109;47.414;18.954;2023-03-17T04:08:28;2.78;;;1.83;;
64684;SDS011;51109;47.414;18.954;2023-03-17T04:10:56;9.25;;;2.33;;
64684;SDS011;51109;47.414;18.954;2023-03-17T04:13:22;6.15;;;2.25;;
64684;SDS011;51109;47.414;18.954;2023-03-17T04:15:47;2.78;;;1.65;;
64684;SDS011;51109;47.414;18.954;2023-03-17T04:18:14;2.78;;;2.25;;
64684;SDS011;51109;47.414;18.954;2023-03-17T04:20:41;1.55;;;1.45;;
64684;SDS011;51109;47.414;18.954;2023-03-17T04:23:07;2.10;;;1.30;;
64684;SDS011;51109;47.414;18.954;2023-03-17T04:25:33;4.18;;;2.03;;
64684;SDS011;51109;47.414;18.954;2023-03-17T04:27:59;3.22;;;2.13;;
64684;SDS011;51109;47.414;18.954;2023-03-17T04:30:25;4.15;;;2.00;;
64684;SDS011;51109;47.414;18.954;2023-03-17T04:32:51;4.43;;;2.63;;
64684;SDS011;51109;47.414;18.954;2023-03-17T04:35:18;5.97;;;2.55;;
64684;SDS011;51109;47.414;18.954;2023-03-17T04:37:47;1.48;;;1.30;;
64684;SDS011;51109;47.414;18.954;2023-03-17T04:40:13;1.45;;;1.30;;
64684;SDS011;51109;47.414;18.954;2023-03-17T04:42:40;6.10;;;2.45;;
64684;SDS011;51109;47.414;18.954;2023-03-17T04:45:07;1.75;;;1.65;;
64684;SDS011;51109;47.414;18.954;2023-03-17T04:47:35;2.25;;;1.67;;
64684;SDS011;51109;47.414;18.954;2023-03-17T04:50:02;3.03;;;2.15;;
64684;SDS011;51109;47.414;18.954;2023-03-17T04:52:28;2.90;;;1.58;;
64684;SDS011;51109;47.414;18.954;2023-03-17T04:54:55;5.05;;;2.50;;
64684;SDS011;51109;47.414;18.954;2023-03-17T04:57:21;4.60;;;2.85;;
64684;SDS011;51109;47.414;18.954;2023-03-17T04:59:48;4.28;;;2.25;;
64684;SDS011;51109;47.414;18.954;2023-03-17T05:02:14;5.88;;;2.75;;
64684;SDS011;51109;47.414;18.954;2023-03-17T05:04:40;4.55;;;2.55;;
64684;SDS011;51109;47.414;18.954;2023-03-17T05:07:07;6.50;;;2.53;;
64684;SDS011;51109;47.414;18.954;2023-03-17T05:09:32;5.60;;;2.33;;
64684;SDS011;51109;47.414;18.954;2023-03-17T05:11:58;2.15;;;1.92;;
64684;SDS011;51109;47.414;18.954;2023-03-17T05:14:24;5.22;;;2.13;;
64684;SDS011;51109;47.414;18.954;2023-03-17T05:16:50;6.38;;;3.08;;
64684;SDS011;51109;47.414;18.954;2023-03-17T05:19:16;5.60;;;3.00;;
64684;SDS011;51109;47.414;18.954;2023-03-17T05:21:42;6.07;;;3.00;;
64684;SDS011;51109;47.414;18.954;2023-03-17T05:24:08;7.18;;;3.55;;
64684;SDS011;51109;47.414;18.954;2023-03-17T05:26:35;10.13;;;3.47;;
64684;SDS011;51109;47.414;18.954;2023-03-17T05:29:00;7.90;;;3.78;;
64684;SDS011;51109;47.414;18.954;2023-03-17T05:31:26;19.17;;;4.20;;
64684;SDS011;51109;47.414;18.954;2023-03-17T05:33:52;10.43;;;3.22;;
64684;SDS011;51109;47.414;18.954;2023-03-17T05:36:18;10.93;;;3.85;;
64684;SDS011;51109;47.414;18.954;2023-03-17T05:38:46;8.32;;;4.18;;
64684;SDS011;51109;47.414;18.954;2023-03-17T05:41:11;6.72;;;3.30;;
64684;SDS011;51109;47.414;18.954;2023-03-17T05:43:38;11.25;;;3.83;;
64684;SDS011;51109;47.414;18.954;2023-03-17T05:46:04;4.22;;;3.00;;
64684;SDS011;51109;47.414;18.954;2023-03-17T05:48:30;6.88;;;3.05;;
64684;SDS011;51109;47.414;18.954;2023-03-17T05:50:56;6.97;;;2.60;;
64684;SDS011;51109;47.414;18.954;2023-03-17T05:53:22;6.65;;;3.13;;
64684;SDS011;51109;47.414;18.954;2023-03-17T05:55:48;4.95;;;2.08;;
64684;SDS011;51109;47.414;18.954;2023-03-17T05:58:16;2.75;;;2.40;;
64684;SDS011;51109;47.414;18.954;2023-03-17T06:00:43;2.65;;;2.35;;
64684;SDS011;51109;47.414;18.954;2023-03-17T06:03:09;4.22;;;2.50;;
64684;SDS011;51109;47.414;18.954;2023-03-17T06:05:35;6.55;;;3.08;;
64684;SDS011;51109;47.414;18.954;2023-03-17T06:08:02;4.07;;;2.80;;
64684;SDS011;51109;47.414;18.954;2023-03-17T06:10:30;3.95;;;2.53;;
64684;SDS011;51109;47.414;18.954;2023-03-17T06:12:57;8.05;;;2.42;;
64684;SDS011;51109;47.414;18.954;2023-03-17T06:15:23;9.32;;;2.17;;
64684;SDS011;51109;47.414;18.954;2023-03-17T06:17:49;10.25;;;2.10;;
64684;SDS011;51109;47.414;18.954;2023-03-17T06:20:16;3.33;;;1.92;;
64684;SDS011;51109;47.414;18.954;2023-03-17T06:22:43;2.67;;;2.00;;
64684;SDS011;51109;47.414;18.954;2023-03-17T06:25:09;3.50;;;2.45;;
64684;SDS011;51109;47.414;18.954;2023-03-17T06:27:36;6.43;;;2.30;;
64684;SDS011;51109;47.414;18.954;2023-03-17T06:30:04;4.63;;;2.67;;
64684;SDS011;51109;47.414;18.954;2023-03-17T06:32:32;5.63;;;2.33;;
64684;SDS011;51109;47.414;18.954;2023-03-17T06:34:59;4.28;;;2.28;;
64684;SDS011;51109;47.414;18.954;2023-03-17T06:37:25;4.85;;;2.40;;
64684;SDS011;51109;47.414;18.954;2023-03-17T06:39:52;7.25;;;2.13;;
64684;SDS011;51109;47.414;18.954;2023-03-17T06:42:18;7.10;;;2.97;;
64684;SDS011;51109;47.414;18.954;2023-03-17T06:44:44;8.05;;;3.05;;
64684;SDS011;51109;47.414;18.954;2023-03-17T06:47:10;9.13;;;2.58;;
64684;SDS011;51109;47.414;18.954;2023-03-17T06:49:36;8.30;;;2.47;;
64684;SDS011;51109;47.414;18.954;2023-03-17T06:52:02;7.70;;;2.03;;
64684;SDS011;51109;47.414;18.954;2023-03-17T06:54:28;4.47;;;1.88;;
64684;SDS011;51109;47.414;18.954;2023-03-17T06:56:54;6.43;;;2.92;;
64684;SDS011;51109;47.414;18.954;2023-03-17T06:59:20;5.97;;;3.13;;
64684;SDS011;51109;47.414;18.954;2023-03-17T07:01:47;5.65;;;2.17;;
64684;SDS011;51109;47.414;18.954;2023-03-17T07:04:14;2.75;;;2.45;;
64684;SDS011;51109;47.414;18.954;2023-03-17T07:06:40;10.85;;;2.78;;
64684;SDS011;51109;47.414;18.954;2023-03-17T07:09:07;5.90;;;2.28;;
64684;SDS011;51109;47.414;18.954;2023-03-17T07:11:34;8.63;;;1.88;;
64684;SDS011;51109;47.414;18.954;2023-03-17T07:14:00;5.93;;;2.10;;
64684;SDS011;51109;47.414;18.954;2023-03-17T07:16:27;4.97;;;2.72;;
64684;SDS011;51109;47.414;18.954;2023-03-17T07:18:53;9.35;;;2.75;;
64684;SDS011;51109;47.414;18.954;2023-03-17T07:21:19;3.30;;;2.05;;
64684;SDS011;51109;47.414;18.954;2023-03-17T07:23:45;3.70;;;2.30;;
64684;SDS011;51109;47.414;18.954;2023-03-17T07:26:13;6.10;;;2.42;;
64684;SDS011;51109;47.414;18.954;2023-03-17T07:28:39;4.85;;;2.20;;
64684;SDS011;51109;47.414;18.954;2023-03-17T07:31:06;4.70;;;2.80;;
64684;SDS011;51109;47.414;18.954;2023-03-17T07:33:38;8.13;;;2.77;;
64684;SDS011;51109;47.414;18.954;2023-03-17T07:36:05;5.65;;;3.28;;
64684;SDS011;51109;47.414;18.954;2023-03-17T07:38:33;3.45;;;2.50;;
64684;SDS011;51109;47.414;18.954;2023-03-17T07:40:59;4.35;;;2.75;;
64684;SDS011;51109;47.414;18.954;2023-03-17T07:43:25;6.63;;;2.47;;
64684;SDS011;51109;47.414;18.954;2023-03-17T07:45:51;6.82;;;3.10;;
64684;SDS011;51109;47.414;18.954;2023-03-17T07:48:17;4.78;;;2.83;;
64684;SDS011;51109;47.414;18.954;2023-03-17T07:50:43;9.60;;;3.28;;
64684;SDS011;51109;47.414;18.954;2023-03-17T07:53:09;6.90;;;3.03;;
64684;SDS011;51109;47.414;18.954;2023-03-17T07:55:35;4.78;;;2.97;;
64684;SDS011;51109;47.414;18.954;2023-03-17T07:58:03;8.27;;;3.13;;
64684;SDS011;51109;47.414;18.954;2023-03-17T08:00:29;4.07;;;2.85;;
64684;SDS011;51109;47.414;18.954;2023-03-17T08:02:55;10.07;;;2.38;;
64684;SDS011;51109;47.414;18.954;2023-03-17T08:05:21;4.50;;;2.45;;
64684;SDS011;51109;47.414;18.954;2023-03-17T08:07:48;9.60;;;2.83;;
64684;SDS011;51109;47.414;18.954;2023-03-17T08:10:14;2.78;;;2.28;;
64684;SDS011;51109;47.414;18.954;2023-03-17T08:12:40;9.05;;;2.50;;
64684;SDS011;51109;47.414;18.954;2023-03-17T08:15:07;10.32;;;3.03;;
64684;SDS011;51109;47.414;18.954;2023-03-17T08:17:34;4.18;;;2.85;;
64684;SDS011;51109;47.414;18.954;2023-03-17T08:20:00;4.72;;;2.50;;
64684;SDS011;51109;47.414;18.954;2023-03-17T08:22:27;7.35;;;2.85;;
64684;SDS011;51109;47.414;18.954;2023-03-17T08:24:53;3.85;;;2.45;;
64684;SDS011;51109;47.414;18.954;2023-03-17T08:27:19;3.83;;;2.30;;
64684;SDS011;51109;47.414;18.954;2023-03-17T08:29:46;7.78;;;2.58;;
64684;SDS011;51109;47.414;18.954;2023-03-17T08:32:12;6.20;;;3.10;;
64684;SDS011;51109;47.414;18.954;2023-03-17T08:34:39;3.42;;;1.90;;
64684;SDS011;51109;47.414;18.954;2023-03-17T08:37:04;6.90;;;2.05;;
64684;SDS011;51109;47.414;18.954;2023-03-17T08:39:31;4.07;;;2.30;;
64684;SDS011;51109;47.414;18.954;2023-03-17T08:41:58;2.70;;;2.30;;
64684;SDS011;51109;47.414;18.954;2023-03-17T08:44:24;3.08;;;1.70;;
64684;SDS011;51109;47.414;18.954;2023-03-17T08:46:50;4.25;;;2.60;;
64684;SDS011;51109;47.414;18.954;2023-03-17T08:49:16;5.25;;;1.98;;
64684;SDS011;51109;47.414;18.954;2023-03-17T08:51:42;4.90;;;1.50;;
64684;SDS011;51109;47.414;18.954;2023-03-17T08:54:09;4.57;;;2.35;;
64684;SDS011;51109;47.414;18.954;2023-03-17T08:56:36;6.18;;;2.13;;
64684;SDS011;51109;47.414;18.954;2023-03-17T08:59:04;3.35;;;1.25;;
64684;SDS011;51109;47.414;18.954;2023-03-17T09:01:31;2.38;;;1.20;;
64684;SDS011;51109;47.414;18.954;2023-03-17T09:03:59;1.42;;;1.33;;
64684;SDS011;51109;47.414;18.954;2023-03-17T09:06:25;2.33;;;1.42;;
64684;SDS011;51109;47.414;18.954;2023-03-17T09:08:52;3.28;;;1.67;;
64684;SDS011;51109;47.414;18.954;2023-03-17T09:11:25;3.38;;;1.13;;
64684;SDS011;51109;47.414;18.954;2023-03-17T09:13:52;1.55;;;0.75;;
64684;SDS011;51109;47.414;18.954;2023-03-17T09:16:19;2.55;;;1.67;;
64684;SDS011;51109;47.414;18.954;2023-03-17T09:18:48;1.63;;;1.20;;
64684;SDS011;51109;47.414;18.954;2023-03-17T09:21:14;5.68;;;1.25;;
64684;SDS011;51109;47.414;18.954;2023-03-17T09:23:40;4.63;;;1.85;;
64684;SDS011;51109;47.414;18.954;2023-03-17T09:26:07;1.23;;;0.95;;
64684;SDS011;51109;47.414;18.954;2023-03-17T09:28:34;2.97;;;1.20;;
64684;SDS011;51109;47.414;18.954;2023-03-17T09:31:02;1.83;;;0.95;;
64684;SDS011;51109;47.414;18.954;2023-03-17T09:33:30;2.33;;;1.40;;
64684;SDS011;51109;47.414;18.954;2023-03-17T09:35:56;7.28;;;2.22;;
64684;SDS011;51109;47.414;18.954;2023-03-17T09:38:25;1.90;;;1.02;;
64684;SDS011;51109;47.414;18.954;2023-03-17T09:41:16;3.08;;;1.20;;
64684;SDS011;51109;47.414;18.954;2023-03-17T09:49:08;1.60;;;1.42;;
64684;SDS011;51109;47.414;18.954;2023-03-17T09:51:39;2.55;;;1.10;;
64684;SDS011;51109;47.414;18.954;2023-03-17T09:54:11;2.83;;;1.30;;
64684;SDS011;51109;47.414;18.954;2023-03-17T09:56:49;2.72;;;1.67;;
64684;SDS011;51109;47.414;18.954;2023-03-17T09:59:29;3.42;;;0.90;;
64684;SDS011;51109;47.414;18.954;2023-03-17T10:01:59;1.88;;;1.23;;
64684;SDS011;51109;47.414;18.954;2023-03-17T10:04:25;1.75;;;1.05;;
64684;SDS011;51109;47.414;18.954;2023-03-17T10:06:54;3.30;;;1.25;;
64684;SDS011;51109;47.414;18.954;2023-03-17T10:12:08;2.13;;;1.38;;
64684;SDS011;51109;47.414;18.954;2023-03-17T10:15:02;1.50;;;1.27;;
64684;SDS011;51109;47.414;18.954;2023-03-17T10:17:38;2.55;;;1.40;;
64684;SDS011;51109;47.414;18.954;2023-03-17T10:22:58;2.92;;;1.40;;
64684;SDS011;51109;47.414;18.954;2023-03-17T10:25:30;2.60;;;1.98;;
64684;SDS011;51109;47.414;18.954;2023-03-17T10:28:01;2.67;;;1.40;;
64684;SDS011;51109;47.414;18.954;2023-03-17T10:30:48;3.92;;;1.45;;
64684;SDS011;51109;47.414;18.954;2023-03-17T10:33:15;1.67;;;1.48;;
64684;SDS011;51109;47.414;18.954;2023-03-17T10:35:41;2.47;;;1.50;;
64684;SDS011;51109;47.414;18.954;2023-03-17T10:40:44;4.07;;;1.65;;
64684;SDS011;51109;47.414;18.954;2023-03-17T10:43:27;3.25;;;1.50;;
64684;SDS011;51109;47.414;18.954;2023-03-17T10:45:58;1.42;;;1.33;;
64684;SDS011;51109;47.414;18.954;2023-03-17T10:48:27;4.53;;;1.35;;
64684;SDS011;51109;47.414;18.954;2023-03-17T10:50:55;3.40;;;1.70;;
64684;SDS011;51109;47.414;18.954;2023-03-17T10:53:24;1.98;;;1.27;;
64684;SDS011;51109;47.414;18.954;2023-03-17T10:55:59;2.15;;;1.50;;
64684;SDS011;51109;47.414;18.954;2023-03-17T11:01:16;3.50;;;1.75;;
64684;SDS011;51109;47.414;18.954;2023-03-17T11:03:47;3.45;;;2.30;;
64684;SDS011;51109;47.414;18.954;2023-03-17T11:06:14;2.65;;;1.30;;
64684;SDS011;51109;47.414;18.954;2023-03-17T11:08:48;2.45;;;1.65;;
64684;SDS011;51109;47.414;18.954;2023-03-17T11:11:22;1.35;;;1.25;;
64684;SDS011;51109;47.414;18.954;2023-03-17T11:13:49;2.17;;;1.60;;
64684;SDS011;51109;47.414;18.954;2023-03-17T11:16:21;2.03;;;1.90;;
64684;SDS011;51109;47.414;18.954;2023-03-17T11:21:18;1.73;;;1.27;;
64684;SDS011;51109;47.414;18.954;2023-03-17T11:23:55;4.20;;;1.85;;
64684;SDS011;51109;47.414;18.954;2023-03-17T11:35:09;3.55;;;1.48;;
64684;SDS011;51109;47.414;18.954;2023-03-17T11:51:44;2.08;;;1.85;;
64684;SDS011;51109;47.414;18.954;2023-03-17T11:57:02;3.90;;;1.65;;
64684;SDS011;51109;47.414;18.954;2023-03-17T12:05:04;5.00;;;1.67;;
64684;SDS011;51109;47.414;18.954;2023-03-17T12:07:35;2.20;;;1.90;;
64684;SDS011;51109;47.414;18.954;2023-03-17T12:12:49;2.80;;;1.65;;
64684;SDS011;51109;47.414;18.954;2023-03-17T12:15:35;3.50;;;1.55;;
64684;SDS011;51109;47.414;18.954;2023-03-17T12:18:14;2.05;;;1.27;;
64684;SDS011;51109;47.414;18.954;2023-03-17T12:26:07;4.35;;;1.40;;
64684;SDS011;51109;47.414;18.954;2023-03-17T12:28:41;2.97;;;1.65;;
64684;SDS011;51109;47.414;18.954;2023-03-17T12:31:22;2.60;;;1.63;;
64684;SDS011;51109;47.414;18.954;2023-03-17T12:34:08;2.90;;;1.65;;
64684;SDS011;51109;47.414;18.954;2023-03-17T12:36:57;2.47;;;0.95;;
64684;SDS011;51109;47.414;18.954;2023-03-17T12:39:27;1.35;;;1.23;;
64684;SDS011;51109;47.414;18.954;2023-03-17T12:55:34;2.78;;;1.42;;
64684;SDS011;51109;47.414;18.954;2023-03-17T12:58:02;2.65;;;1.63;;
64684;SDS011;51109;47.414;18.954;2023-03-17T13:00:33;2.72;;;1.52;;
64684;SDS011;51109;47.414;18.954;2023-03-17T13:03:21;2.30;;;1.50;;
64684;SDS011;51109;47.414;18.954;2023-03-17T13:08:24;2.72;;;1.65;;
64684;SDS011;51109;47.414;18.954;2023-03-17T13:16:27;4.00;;;2.05;;
64684;SDS011;51109;47.414;18.954;2023-03-17T13:24:43;5.40;;;1.95;;
64684;SDS011;51109;47.414;18.954;2023-03-17T13:27:13;4.38;;;1.25;;
64684;SDS011;51109;47.414;18.954;2023-03-17T13:35:41;4.68;;;1.63;;
64684;SDS011;51109;47.414;18.954;2023-03-17T13:46:44;3.63;;;1.20;;
64684;SDS011;51109;47.414;18.954;2023-03-17T13:49:18;2.22;;;1.65;;
64684;SDS011;51109;47.414;18.954;2023-03-17T13:52:01;2.25;;;1.42;;
64684;SDS011;51109;47.414;18.954;2023-03-17T13:54:30;3.15;;;1.73;;
64684;SDS011;51109;47.414;18.954;2023-03-17T13:57:20;2.58;;;1.30;;
64684;SDS011;51109;47.414;18.954;2023-03-17T14:02:18;4.80;;;1.63;;
64684;SDS011;51109;47.414;18.954;2023-03-17T14:07:31;1.88;;;1.52;;
64684;SDS011;51109;47.414;18.954;2023-03-17T14:10:15;2.70;;;2.05;;
64684;SDS011;51109;47.414;18.954;2023-03-17T14:12:48;1.90;;;1.40;;
64684;SDS011;51109;47.414;18.954;2023-03-17T14:15:26;4.47;;;1.58;;
64684;SDS011;51109;47.414;18.954;2023-03-17T14:18:05;5.38;;;2.08;;
64684;SDS011;51109;47.414;18.954;2023-03-17T14:20:35;4.50;;;1.40;;
64684;SDS011;51109;47.414;18.954;2023-03-17T14:23:02;2.00;;;1.17;;
64684;SDS011;51109;47.414;18.954;2023-03-17T14:25:35;2.15;;;1.58;;
64684;SDS011;51109;47.414;18.954;2023-03-17T14:28:03;3.08;;;1.40;;
64684;SDS011;51109;47.414;18.954;2023-03-17T14:30:32;2.67;;;1.45;;
64684;SDS011;51109;47.414;18.954;2023-03-17T14:35:48;2.38;;;1.67;;
64684;SDS011;51109;47.414;18.954;2023-03-17T14:38:17;3.22;;;1.38;;
64684;SDS011;51109;47.414;18.954;2023-03-17T14:40:46;2.47;;;1.42;;
64684;SDS011;51109;47.414;18.954;2023-03-17T14:43:14;1.75;;;1.23;;
64684;SDS011;51109;47.414;18.954;2023-03-17T14:45:42;5.93;;;1.67;;
64684;SDS011;51109;47.414;18.954;2023-03-17T14:48:16;2.80;;;1.50;;
64684;SDS011;51109;47.414;18.954;2023-03-17T14:50:54;2.10;;;1.90;;
64684;SDS011;51109;47.414;18.954;2023-03-17T14:53:24;3.35;;;1.65;;
64684;SDS011;51109;47.414;18.954;2023-03-17T14:55:51;4.68;;;1.60;;
64684;SDS011;51109;47.414;18.954;2023-03-17T14:58:23;2.10;;;1.85;;
64684;SDS011;51109;47.414;18.954;2023-03-17T15:00:56;1.67;;;1.45;;
64684;SDS011;51109;47.414;18.954;2023-03-17T15:03:32;3.92;;;1.63;;
64684;SDS011;51109;47.414;18.954;2023-03-17T15:08:47;2.88;;;1.50;;
64684;SDS011;51109;47.414;18.954;2023-03-17T15:13:47;2.60;;;1.63;;
64684;SDS011;51109;47.414;18.954;2023-03-17T15:16:15;2.47;;;1.55;;
64684;SDS011;51109;47.414;18.954;2023-03-17T15:18:48;3.97;;;1.83;;
64684;SDS011;51109;47.414;18.954;2023-03-17T15:21:36;4.68;;;2.08;;
64684;SDS011;51109;47.414;18.954;2023-03-17T15:24:05;2.83;;;1.75;;
64684;SDS011;51109;47.414;18.954;2023-03-17T15:26:49;4.68;;;1.63;;
64684;SDS011;51109;47.414;18.954;2023-03-17T15:29:22;3.10;;;1.63;;
64684;SDS011;51109;47.414;18.954;2023-03-17T15:31:48;3.13;;;1.63;;
64684;SDS011;51109;47.414;18.954;2023-03-17T15:34:14;1.63;;;1.45;;
64684;SDS011;51109;47.414;18.954;2023-03-17T15:36:40;3.05;;;1.90;;
64684;SDS011;51109;47.414;18.954;2023-03-17T15:39:08;2.97;;;1.75;;
64684;SDS011;51109;47.414;18.954;2023-03-17T15:41:34;2.22;;;1.80;;
64684;SDS011;51109;47.414;18.954;2023-03-17T15:44:00;3.38;;;1.77;;
64684;SDS011;51109;47.414;18.954;2023-03-17T15:46:26;2.35;;;1.90;;
64684;SDS011;51109;47.414;18.954;2023-03-17T15:48:55;4.97;;;2.15;;
64684;SDS011;51109;47.414;18.954;2023-03-17T15:51:22;1.50;;;1.38;;
64684;SDS011;51109;47.414;18.954;2023-03-17T15:53:48;5.72;;;1.83;;
64684;SDS011;51109;47.414;18.954;2023-03-17T15:56:14;3.83;;;1.60;;
64684;SDS011;51109;47.414;18.954;2023-03-17T15:58:44;3.00;;;1.65;;
64684;SDS011;51109;47.414;18.954;2023-03-17T16:01:12;1.67;;;1.55;;
64684;SDS011;51109;47.414;18.954;2023-03-17T16:03:39;1.42;;;1.33;;
64684;SDS011;51109;47.414;18.954;2023-03-17T16:06:09;3.72;;;1.55;;
64684;SDS011;51109;47.414;18.954;2023-03-17T16:08:42;2.03;;;1.42;;
64684;SDS011;51109;47.414;18.954;2023-03-17T16:11:12;4.38;;;1.88;;
64684;SDS011;51109;47.414;18.954;2023-03-17T16:13:39;3.33;;;1.35;;
64684;SDS011;51109;47.414;18.954;2023-03-17T16:16:05;2.70;;;1.52;;
64684;SDS011;51109;47.414;18.954;2023-03-17T16:18:40;5.10;;;1.65;;
64684;SDS011;51109;47.414;18.954;2023-03-17T16:21:06;3.70;;;2.28;;
64684;SDS011;51109;47.414;18.954;2023-03-17T16:23:33;3.28;;;2.08;;
64684;SDS011;51109;47.414;18.954;2023-03-17T16:26:00;6.25;;;3.72;;
64684;SDS011;51109;47.414;18.954;2023-03-17T16:28:27;9.45;;;3.70;;
64684;SDS011;51109;47.414;18.954;2023-03-17T16:30:55;7.88;;;3.17;;
64684;SDS011;51109;47.414;18.954;2023-03-17T16:33:24;6.57;;;2.55;;
64684;SDS011;51109;47.414;18.954;2023-03-17T16:35:50;4.60;;;2.58;;
64684;SDS011;51109;47.414;18.954;2023-03-17T16:38:19;5.07;;;2.42;;
64684;SDS011;51109;47.414;18.954;2023-03-17T16:40:47;4.60;;;2.70;;
64684;SDS011;51109;47.414;18.954;2023-03-17T16:43:23;3.95;;;2.65;;